sensor_id;sensor_type;location;lat;lon;timestamp;P1;durP1;ratioP1;P2;durP2;ratioP2
679;SDS011;322;48.846;9.230;2024-03-02T00:01:06;26.10;;;13.23;;
679;SDS011;322;48.846;9.230;2024-03-02T00:03:34;21.00;;;13.03;;
679;SDS011;322;48.846;9.230;2024-03-02T00:06:04;22.90;;;13.50;;
679;SDS011;322;48.846;9.230;2024-03-02T00:08:32;19.97;;;12.33;;
679;SDS011;322;48.846;9.230;2024-03-02T00:11:00;21.03;;;12.60;;
679;SDS011;322;48.846;9.230;2024-03-02T00:13:31;22.90;;;12.67;;
679;SDS011;322;48.846;9.230;2024-03-02T00:16:00;19.77;;;12.17;;
679;SDS011;322;48.846;9.230;2024-03-02T00:18:31;21.40;;;13.17;;
679;SDS011;322;48.846;9.230;2024-03-02T00:21:01;21.97;;;13.23;;
679;SDS011;322;48.846;9.230;2024-03-02T00:23:30;22.03;;;13.40;;
679;SDS011;322;48.846;9.230;2024-03-02T00:25:59;20.73;;;13.47;;
679;SDS011;322;48.846;9.230;2024-03-02T00:28:27;21.90;;;13.00;;
679;SDS011;322;48.846;9.230;2024-03-02T00:31:03;18.73;;;12.30;;
679;SDS011;322;48.846;9.230;2024-03-02T00:33:32;21.87;;;12.83;;
679;SDS011;322;48.846;9.230;2024-03-02T00:36:02;21.60;;;12.20;;
679;SDS011;322;48.846;9.230;2024-03-02T00:38:31;21.43;;;12.57;;
679;SDS011;322;48.846;9.230;2024-03-02T00:41:00;22.40;;;12.90;;
679;SDS011;322;48.846;9.230;2024-03-02T00:43:41;21.03;;;11.37;;
679;SDS011;322;48.846;9.230;2024-03-02T00:46:15;21.30;;;12.43;;
679;SDS011;322;48.846;9.230;2024-03-02T00:48:48;21.20;;;11.63;;
679;SDS011;322;48.846;9.230;2024-03-02T00:51:21;19.53;;;11.53;;
679;SDS011;322;48.846;9.230;2024-03-02T00:53:50;20.97;;;11.40;;
679;SDS011;322;48.846;9.230;2024-03-02T00:56:21;21.57;;;11.97;;
679;SDS011;322;48.846;9.230;2024-03-02T00:58:50;27.53;;;14.67;;
679;SDS011;322;48.846;9.230;2024-03-02T01:01:20;23.90;;;13.37;;
679;SDS011;322;48.846;9.230;2024-03-02T01:03:48;24.30;;;12.53;;
679;SDS011;322;48.846;9.230;2024-03-02T01:06:17;22.60;;;12.13;;
679;SDS011;322;48.846;9.230;2024-03-02T01:08:45;22.73;;;12.90;;
679;SDS011;322;48.846;9.230;2024-03-02T01:11:17;20.70;;;12.07;;
679;SDS011;322;48.846;9.230;2024-03-02T01:13:48;22.73;;;12.60;;
679;SDS011;322;48.846;9.230;2024-03-02T01:16:16;21.23;;;11.80;;
679;SDS011;322;48.846;9.230;2024-03-02T01:18:45;22.70;;;12.40;;
679;SDS011;322;48.846;9.230;2024-03-02T01:21:14;23.73;;;12.00;;
679;SDS011;322;48.846;9.230;2024-03-02T01:23:42;22.30;;;12.37;;
679;SDS011;322;48.846;9.230;2024-03-02T01:26:10;26.07;;;13.73;;
679;SDS011;322;48.846;9.230;2024-03-02T01:28:38;26.00;;;12.57;;
679;SDS011;322;48.846;9.230;2024-03-02T01:31:06;24.03;;;12.13;;
679;SDS011;322;48.846;9.230;2024-03-02T01:33:34;19.80;;;10.17;;
679;SDS011;322;48.846;9.230;2024-03-02T01:36:04;22.47;;;13.27;;
679;SDS011;322;48.846;9.230;2024-03-02T01:38:34;19.07;;;11.10;;
679;SDS011;322;48.846;9.230;2024-03-02T01:41:02;23.23;;;13.30;;
679;SDS011;322;48.846;9.230;2024-03-02T01:43:30;20.13;;;11.47;;
679;SDS011;322;48.846;9.230;2024-03-02T01:45:58;20.50;;;11.90;;
679;SDS011;322;48.846;9.230;2024-03-02T01:48:26;21.90;;;11.40;;
679;SDS011;322;48.846;9.230;2024-03-02T01:50:54;23.57;;;13.00;;
679;SDS011;322;48.846;9.230;2024-03-02T01:53:23;20.83;;;11.93;;
679;SDS011;322;48.846;9.230;2024-03-02T01:55:51;21.80;;;10.73;;
679;SDS011;322;48.846;9.230;2024-03-02T01:58:19;22.30;;;11.67;;
679;SDS011;322;48.846;9.230;2024-03-02T02:00:47;19.30;;;10.77;;
679;SDS011;322;48.846;9.230;2024-03-02T02:03:17;21.03;;;10.83;;
679;SDS011;322;48.846;9.230;2024-03-02T02:05:45;21.40;;;11.90;;
679;SDS011;322;48.846;9.230;2024-03-02T02:08:14;19.33;;;11.77;;
679;SDS011;322;48.846;9.230;2024-03-02T02:10:43;17.77;;;9.80;;
679;SDS011;322;48.846;9.230;2024-03-02T02:13:11;19.30;;;10.50;;
679;SDS011;322;48.846;9.230;2024-03-02T02:15:39;20.13;;;10.20;;
679;SDS011;322;48.846;9.230;2024-03-02T02:18:07;19.50;;;11.07;;
679;SDS011;322;48.846;9.230;2024-03-02T02:20:35;18.73;;;10.00;;
679;SDS011;322;48.846;9.230;2024-03-02T02:23:05;18.27;;;11.40;;
679;SDS011;322;48.846;9.230;2024-03-02T02:25:34;20.57;;;10.93;;
679;SDS011;322;48.846;9.230;2024-03-02T02:28:02;21.13;;;11.20;;
679;SDS011;322;48.846;9.230;2024-03-02T02:30:31;22.40;;;11.33;;
679;SDS011;322;48.846;9.230;2024-03-02T02:33:00;23.83;;;11.77;;
679;SDS011;322;48.846;9.230;2024-03-02T02:35:28;23.03;;;11.77;;
679;SDS011;322;48.846;9.230;2024-03-02T02:37:56;19.97;;;12.20;;
679;SDS011;322;48.846;9.230;2024-03-02T02:40:26;20.90;;;11.50;;
679;SDS011;322;48.846;9.230;2024-03-02T02:42:56;23.30;;;12.70;;
679;SDS011;322;48.846;9.230;2024-03-02T02:45:25;20.83;;;12.03;;
679;SDS011;322;48.846;9.230;2024-03-02T02:47:53;23.53;;;12.50;;
679;SDS011;322;48.846;9.230;2024-03-02T02:50:21;22.97;;;12.10;;
679;SDS011;322;48.846;9.230;2024-03-02T02:52:49;22.00;;;12.40;;
679;SDS011;322;48.846;9.230;2024-03-02T02:55:17;22.50;;;11.70;;
679;SDS011;322;48.846;9.230;2024-03-02T02:57:46;23.13;;;13.13;;
679;SDS011;322;48.846;9.230;2024-03-02T03:00:14;24.20;;;13.30;;
679;SDS011;322;48.846;9.230;2024-03-02T03:02:45;25.83;;;14.23;;
679;SDS011;322;48.846;9.230;2024-03-02T03:05:16;23.53;;;12.53;;
679;SDS011;322;48.846;9.230;2024-03-02T03:07:45;24.57;;;13.73;;
679;SDS011;322;48.846;9.230;2024-03-02T03:10:16;23.47;;;13.23;;
679;SDS011;322;48.846;9.230;2024-03-02T03:12:44;22.47;;;11.63;;
679;SDS011;322;48.846;9.230;2024-03-02T03:15:14;23.53;;;12.53;;
679;SDS011;322;48.846;9.230;2024-03-02T03:17:42;24.30;;;11.80;;
679;SDS011;322;48.846;9.230;2024-03-02T03:20:12;25.17;;;14.47;;
679;SDS011;322;48.846;9.230;2024-03-02T03:22:41;20.33;;;11.70;;
679;SDS011;322;48.846;9.230;2024-03-02T03:25:09;22.90;;;11.27;;
679;SDS011;322;48.846;9.230;2024-03-02T03:27:37;25.70;;;12.13;;
679;SDS011;322;48.846;9.230;2024-03-02T03:30:07;21.80;;;12.10;;
679;SDS011;322;48.846;9.230;2024-03-02T03:32:35;21.87;;;11.93;;
679;SDS011;322;48.846;9.230;2024-03-02T03:35:04;24.80;;;11.80;;
679;SDS011;322;48.846;9.230;2024-03-02T03:37:33;24.90;;;13.73;;
679;SDS011;322;48.846;9.230;2024-03-02T03:40:01;20.90;;;11.93;;
679;SDS011;322;48.846;9.230;2024-03-02T03:42:33;22.07;;;11.70;;
679;SDS011;322;48.846;9.230;2024-03-02T03:45:01;26.07;;;13.40;;
679;SDS011;322;48.846;9.230;2024-03-02T03:47:32;24.83;;;11.57;;
679;SDS011;322;48.846;9.230;2024-03-02T03:50:00;21.40;;;10.60;;
679;SDS011;322;48.846;9.230;2024-03-02T03:52:30;20.43;;;11.37;;
679;SDS011;322;48.846;9.230;2024-03-02T03:54:58;21.17;;;12.17;;
679;SDS011;322;48.846;9.230;2024-03-02T03:57:27;18.63;;;10.80;;
679;SDS011;322;48.846;9.230;2024-03-02T03:59:55;22.63;;;12.37;;
679;SDS011;322;48.846;9.230;2024-03-02T04:02:23;27.83;;;12.37;;
679;SDS011;322;48.846;9.230;2024-03-02T04:04:53;30.60;;;13.70;;
679;SDS011;322;48.846;9.230;2024-03-02T04:07:20;26.30;;;12.63;;
679;SDS011;322;48.846;9.230;2024-03-02T04:09:48;22.30;;;12.33;;
679;SDS011;322;48.846;9.230;2024-03-02T04:12:16;21.77;;;11.77;;
679;SDS011;322;48.846;9.230;2024-03-02T04:14:44;23.03;;;11.33;;
679;SDS011;322;48.846;9.230;2024-03-02T04:17:12;25.67;;;11.30;;
679;SDS011;322;48.846;9.230;2024-03-02T04:19:40;24.80;;;12.23;;
679;SDS011;322;48.846;9.230;2024-03-02T04:22:09;23.30;;;13.00;;
679;SDS011;322;48.846;9.230;2024-03-02T04:24:50;19.67;;;11.23;;
679;SDS011;322;48.846;9.230;2024-03-02T04:27:18;24.00;;;12.17;;
679;SDS011;322;48.846;9.230;2024-03-02T04:29:46;24.70;;;11.37;;
679;SDS011;322;48.846;9.230;2024-03-02T04:32:13;21.93;;;10.77;;
679;SDS011;322;48.846;9.230;2024-03-02T04:34:41;22.03;;;10.70;;
679;SDS011;322;48.846;9.230;2024-03-02T04:37:11;20.03;;;11.20;;
679;SDS011;322;48.846;9.230;2024-03-02T04:39:40;20.83;;;11.70;;
679;SDS011;322;48.846;9.230;2024-03-02T04:42:08;20.70;;;12.60;;
679;SDS011;322;48.846;9.230;2024-03-02T04:44:36;21.10;;;9.53;;
679;SDS011;322;48.846;9.230;2024-03-02T04:47:04;22.87;;;12.07;;
679;SDS011;322;48.846;9.230;2024-03-02T04:49:32;24.27;;;11.83;;
679;SDS011;322;48.846;9.230;2024-03-02T04:52:00;27.07;;;13.87;;
679;SDS011;322;48.846;9.230;2024-03-02T04:54:30;24.33;;;11.23;;
679;SDS011;322;48.846;9.230;2024-03-02T04:56:58;20.90;;;10.87;;
679;SDS011;322;48.846;9.230;2024-03-02T04:59:26;27.13;;;11.90;;
679;SDS011;322;48.846;9.230;2024-03-02T05:01:54;26.93;;;12.10;;
679;SDS011;322;48.846;9.230;2024-03-02T05:04:22;25.87;;;11.70;;
679;SDS011;322;48.846;9.230;2024-03-02T05:06:49;24.43;;;12.00;;
679;SDS011;322;48.846;9.230;2024-03-02T05:09:19;23.00;;;11.23;;
679;SDS011;322;48.846;9.230;2024-03-02T05:11:49;24.90;;;12.00;;
679;SDS011;322;48.846;9.230;2024-03-02T05:14:34;24.30;;;12.07;;
679;SDS011;322;48.846;9.230;2024-03-02T05:17:03;22.30;;;10.33;;
679;SDS011;322;48.846;9.230;2024-03-02T05:19:31;23.07;;;11.20;;
679;SDS011;322;48.846;9.230;2024-03-02T05:21:59;27.33;;;10.97;;
679;SDS011;322;48.846;9.230;2024-03-02T05:24:27;23.27;;;10.97;;
679;SDS011;322;48.846;9.230;2024-03-02T05:26:56;21.53;;;10.60;;
679;SDS011;322;48.846;9.230;2024-03-02T05:29:24;21.43;;;11.60;;
679;SDS011;322;48.846;9.230;2024-03-02T05:31:52;24.13;;;10.57;;
679;SDS011;322;48.846;9.230;2024-03-02T05:34:20;23.37;;;10.90;;
679;SDS011;322;48.846;9.230;2024-03-02T05:36:48;20.43;;;11.87;;
679;SDS011;322;48.846;9.230;2024-03-02T05:39:16;26.40;;;12.97;;
679;SDS011;322;48.846;9.230;2024-03-02T05:41:44;24.50;;;13.50;;
679;SDS011;322;48.846;9.230;2024-03-02T05:44:13;23.50;;;13.93;;
679;SDS011;322;48.846;9.230;2024-03-02T05:46:41;26.90;;;13.33;;
679;SDS011;322;48.846;9.230;2024-03-02T05:49:10;24.00;;;12.00;;
679;SDS011;322;48.846;9.230;2024-03-02T05:51:37;24.80;;;11.47;;
679;SDS011;322;48.846;9.230;2024-03-02T05:54:05;27.60;;;12.20;;
679;SDS011;322;48.846;9.230;2024-03-02T05:56:33;26.07;;;11.00;;
679;SDS011;322;48.846;9.230;2024-03-02T05:59:02;20.80;;;11.10;;
679;SDS011;322;48.846;9.230;2024-03-02T06:01:40;22.60;;;11.90;;
679;SDS011;322;48.846;9.230;2024-03-02T06:04:09;22.43;;;11.57;;
679;SDS011;322;48.846;9.230;2024-03-02T06:06:38;24.10;;;11.13;;
679;SDS011;322;48.846;9.230;2024-03-02T06:09:06;27.30;;;12.03;;
679;SDS011;322;48.846;9.230;2024-03-02T06:11:34;25.17;;;12.97;;
679;SDS011;322;48.846;9.230;2024-03-02T06:14:03;23.57;;;11.30;;
679;SDS011;322;48.846;9.230;2024-03-02T06:16:31;21.70;;;11.50;;
679;SDS011;322;48.846;9.230;2024-03-02T06:19:00;24.67;;;12.10;;
679;SDS011;322;48.846;9.230;2024-03-02T06:21:29;24.47;;;10.57;;
679;SDS011;322;48.846;9.230;2024-03-02T06:23:57;23.77;;;12.07;;
679;SDS011;322;48.846;9.230;2024-03-02T06:26:25;25.30;;;12.33;;
679;SDS011;322;48.846;9.230;2024-03-02T06:28:53;26.57;;;12.20;;
679;SDS011;322;48.846;9.230;2024-03-02T06:31:21;27.70;;;14.03;;
679;SDS011;322;48.846;9.230;2024-03-02T06:33:49;26.77;;;12.60;;
679;SDS011;322;48.846;9.230;2024-03-02T06:36:18;28.30;;;14.07;;
679;SDS011;322;48.846;9.230;2024-03-02T06:38:46;31.17;;;13.90;;
679;SDS011;322;48.846;9.230;2024-03-02T06:41:14;28.47;;;13.47;;
679;SDS011;322;48.846;9.230;2024-03-02T06:43:42;27.57;;;14.40;;
679;SDS011;322;48.846;9.230;2024-03-02T06:46:10;29.80;;;14.83;;
679;SDS011;322;48.846;9.230;2024-03-02T06:48:40;33.60;;;14.70;;
679;SDS011;322;48.846;9.230;2024-03-02T06:51:09;23.57;;;14.20;;
679;SDS011;322;48.846;9.230;2024-03-02T06:53:38;27.67;;;13.77;;
679;SDS011;322;48.846;9.230;2024-03-02T06:56:06;27.33;;;12.93;;
679;SDS011;322;48.846;9.230;2024-03-02T06:58:35;30.93;;;13.83;;
679;SDS011;322;48.846;9.230;2024-03-02T07:01:03;32.30;;;14.23;;
679;SDS011;322;48.846;9.230;2024-03-02T07:03:31;30.10;;;14.10;;
679;SDS011;322;48.846;9.230;2024-03-02T07:06:00;24.70;;;13.70;;
679;SDS011;322;48.846;9.230;2024-03-02T07:08:28;27.70;;;13.90;;
679;SDS011;322;48.846;9.230;2024-03-02T07:10:57;26.50;;;14.33;;
679;SDS011;322;48.846;9.230;2024-03-02T07:13:25;26.30;;;14.00;;
679;SDS011;322;48.846;9.230;2024-03-02T07:15:54;27.90;;;14.57;;
679;SDS011;322;48.846;9.230;2024-03-02T07:18:48;26.10;;;14.17;;
679;SDS011;322;48.846;9.230;2024-03-02T07:21:18;28.20;;;14.03;;
679;SDS011;322;48.846;9.230;2024-03-02T07:23:48;28.87;;;14.80;;
679;SDS011;322;48.846;9.230;2024-03-02T07:26:18;27.63;;;13.57;;
679;SDS011;322;48.846;9.230;2024-03-02T07:28:49;21.83;;;13.47;;
679;SDS011;322;48.846;9.230;2024-03-02T07:31:17;30.70;;;13.83;;
679;SDS011;322;48.846;9.230;2024-03-02T07:33:45;22.33;;;11.63;;
679;SDS011;322;48.846;9.230;2024-03-02T07:36:14;22.87;;;13.13;;
679;SDS011;322;48.846;9.230;2024-03-02T07:38:42;27.13;;;13.37;;
679;SDS011;322;48.846;9.230;2024-03-02T07:41:11;22.73;;;11.10;;
679;SDS011;322;48.846;9.230;2024-03-02T07:43:41;23.03;;;12.20;;
679;SDS011;322;48.846;9.230;2024-03-02T07:46:09;24.17;;;12.00;;
679;SDS011;322;48.846;9.230;2024-03-02T07:48:37;22.47;;;12.57;;
679;SDS011;322;48.846;9.230;2024-03-02T07:51:05;21.43;;;11.67;;
679;SDS011;322;48.846;9.230;2024-03-02T07:53:33;20.17;;;12.10;;
679;SDS011;322;48.846;9.230;2024-03-02T07:56:03;17.83;;;9.90;;
679;SDS011;322;48.846;9.230;2024-03-02T07:58:32;17.33;;;9.47;;
679;SDS011;322;48.846;9.230;2024-03-02T08:01:03;18.90;;;9.80;;
679;SDS011;322;48.846;9.230;2024-03-02T08:03:31;15.90;;;8.43;;
679;SDS011;322;48.846;9.230;2024-03-02T08:06:00;18.23;;;9.60;;
679;SDS011;322;48.846;9.230;2024-03-02T08:08:29;18.13;;;9.87;;
679;SDS011;322;48.846;9.230;2024-03-02T08:10:56;16.97;;;9.97;;
679;SDS011;322;48.846;9.230;2024-03-02T08:13:27;17.13;;;9.47;;
679;SDS011;322;48.846;9.230;2024-03-02T08:15:54;22.87;;;10.43;;
679;SDS011;322;48.846;9.230;2024-03-02T08:18:24;16.20;;;8.67;;
679;SDS011;322;48.846;9.230;2024-03-02T08:20:52;15.63;;;8.83;;
679;SDS011;322;48.846;9.230;2024-03-02T08:23:21;17.90;;;8.63;;
679;SDS011;322;48.846;9.230;2024-03-02T08:25:49;17.00;;;8.70;;
679;SDS011;322;48.846;9.230;2024-03-02T08:28:17;16.60;;;8.67;;
679;SDS011;322;48.846;9.230;2024-03-02T08:30:46;14.73;;;7.60;;
679;SDS011;322;48.846;9.230;2024-03-02T08:33:14;14.40;;;8.20;;
679;SDS011;322;48.846;9.230;2024-03-02T08:35:44;15.17;;;8.13;;
679;SDS011;322;48.846;9.230;2024-03-02T08:38:12;15.60;;;7.80;;
679;SDS011;322;48.846;9.230;2024-03-02T08:40:40;16.10;;;8.70;;
679;SDS011;322;48.846;9.230;2024-03-02T08:43:08;17.40;;;7.90;;
679;SDS011;322;48.846;9.230;2024-03-02T08:45:36;14.07;;;7.63;;
679;SDS011;322;48.846;9.230;2024-03-02T08:48:06;15.30;;;8.13;;
679;SDS011;322;48.846;9.230;2024-03-02T08:50:34;13.57;;;7.30;;
679;SDS011;322;48.846;9.230;2024-03-02T08:53:03;14.20;;;6.80;;
679;SDS011;322;48.846;9.230;2024-03-02T08:55:31;15.70;;;7.70;;
679;SDS011;322;48.846;9.230;2024-03-02T08:57:59;15.00;;;7.23;;
679;SDS011;322;48.846;9.230;2024-03-02T09:00:27;15.13;;;7.33;;
679;SDS011;322;48.846;9.230;2024-03-02T09:02:55;14.00;;;7.40;;
679;SDS011;322;48.846;9.230;2024-03-02T09:05:23;13.63;;;6.10;;
679;SDS011;322;48.846;9.230;2024-03-02T09:07:51;11.87;;;5.77;;
679;SDS011;322;48.846;9.230;2024-03-02T09:10:20;12.00;;;5.37;;
679;SDS011;322;48.846;9.230;2024-03-02T09:12:52;12.00;;;6.27;;
679;SDS011;322;48.846;9.230;2024-03-02T09:15:20;11.37;;;5.17;;
679;SDS011;322;48.846;9.230;2024-03-02T09:17:48;11.30;;;5.10;;
679;SDS011;322;48.846;9.230;2024-03-02T09:20:16;12.27;;;5.47;;
679;SDS011;322;48.846;9.230;2024-03-02T09:22:43;11.03;;;5.50;;
679;SDS011;322;48.846;9.230;2024-03-02T09:25:13;10.23;;;4.87;;
679;SDS011;322;48.846;9.230;2024-03-02T09:27:44;12.33;;;6.30;;
679;SDS011;322;48.846;9.230;2024-03-02T09:30:12;10.27;;;4.90;;
679;SDS011;322;48.846;9.230;2024-03-02T09:32:41;11.20;;;4.90;;
679;SDS011;322;48.846;9.230;2024-03-02T09:35:10;9.37;;;3.93;;
679;SDS011;322;48.846;9.230;2024-03-02T09:37:38;9.73;;;3.90;;
679;SDS011;322;48.846;9.230;2024-03-02T09:40:06;8.83;;;3.63;;
679;SDS011;322;48.846;9.230;2024-03-02T09:42:35;10.70;;;3.97;;
679;SDS011;322;48.846;9.230;2024-03-02T09:45:05;9.80;;;4.33;;
679;SDS011;322;48.846;9.230;2024-03-02T09:47:34;12.97;;;4.00;;
679;SDS011;322;48.846;9.230;2024-03-02T09:50:02;9.73;;;4.00;;
679;SDS011;322;48.846;9.230;2024-03-02T09:52:30;9.90;;;3.80;;
679;SDS011;322;48.846;9.230;2024-03-02T09:54:58;9.00;;;3.97;;
679;SDS011;322;48.846;9.230;2024-03-02T09:57:27;9.67;;;3.80;;
679;SDS011;322;48.846;9.230;2024-03-02T09:59:55;8.97;;;3.50;;
679;SDS011;322;48.846;9.230;2024-03-02T10:02:24;8.23;;;3.00;;
679;SDS011;322;48.846;9.230;2024-03-02T10:04:52;8.70;;;3.37;;
679;SDS011;322;48.846;9.230;2024-03-02T10:07:20;8.70;;;3.10;;
679;SDS011;322;48.846;9.230;2024-03-02T10:09:48;8.67;;;3.30;;
679;SDS011;322;48.846;9.230;2024-03-02T10:12:18;9.47;;;3.80;;
679;SDS011;322;48.846;9.230;2024-03-02T10:14:46;8.87;;;3.83;;
679;SDS011;322;48.846;9.230;2024-03-02T10:17:16;9.83;;;5.23;;
679;SDS011;322;48.846;9.230;2024-03-02T10:19:46;9.10;;;3.30;;
679;SDS011;322;48.846;9.230;2024-03-02T10:22:14;9.27;;;3.43;;
679;SDS011;322;48.846;9.230;2024-03-02T10:24:42;8.60;;;3.50;;
679;SDS011;322;48.846;9.230;2024-03-02T10:27:15;8.00;;;3.00;;
679;SDS011;322;48.846;9.230;2024-03-02T10:29:47;8.67;;;3.10;;
679;SDS011;322;48.846;9.230;2024-03-02T10:32:16;8.60;;;3.13;;
679;SDS011;322;48.846;9.230;2024-03-02T10:34:44;7.90;;;2.63;;
679;SDS011;322;48.846;9.230;2024-03-02T10:37:14;9.17;;;3.57;;
679;SDS011;322;48.846;9.230;2024-03-02T10:39:43;11.90;;;2.90;;
679;SDS011;322;48.846;9.230;2024-03-02T10:42:14;9.03;;;3.20;;
679;SDS011;322;48.846;9.230;2024-03-02T10:44:42;8.03;;;2.80;;
679;SDS011;322;48.846;9.230;2024-03-02T10:47:10;9.43;;;2.83;;
679;SDS011;322;48.846;9.230;2024-03-02T10:49:41;9.10;;;2.70;;
679;SDS011;322;48.846;9.230;2024-03-02T10:52:11;7.60;;;2.40;;
679;SDS011;322;48.846;9.230;2024-03-02T10:54:39;9.00;;;2.37;;
679;SDS011;322;48.846;9.230;2024-03-02T10:57:07;8.23;;;2.57;;
679;SDS011;322;48.846;9.230;2024-03-02T10:59:40;8.10;;;2.63;;
679;SDS011;322;48.846;9.230;2024-03-02T11:02:19;8.10;;;2.83;;
679;SDS011;322;48.846;9.230;2024-03-02T11:04:50;9.33;;;2.43;;
679;SDS011;322;48.846;9.230;2024-03-02T11:07:23;8.10;;;2.60;;
679;SDS011;322;48.846;9.230;2024-03-02T11:09:54;7.40;;;2.50;;
679;SDS011;322;48.846;9.230;2024-03-02T11:12:28;7.63;;;2.33;;
679;SDS011;322;48.846;9.230;2024-03-02T11:14:58;7.60;;;2.40;;
679;SDS011;322;48.846;9.230;2024-03-02T11:17:27;8.60;;;2.53;;
679;SDS011;322;48.846;9.230;2024-03-02T11:19:56;8.30;;;2.90;;
679;SDS011;322;48.846;9.230;2024-03-02T11:22:26;7.90;;;2.33;;
679;SDS011;322;48.846;9.230;2024-03-02T11:24:55;7.70;;;2.33;;
679;SDS011;322;48.846;9.230;2024-03-02T11:33:18;8.00;;;2.60;;
679;SDS011;322;48.846;9.230;2024-03-02T11:35:53;7.60;;;2.50;;
679;SDS011;322;48.846;9.230;2024-03-02T11:38:28;7.53;;;2.30;;
679;SDS011;322;48.846;9.230;2024-03-02T11:40:59;7.30;;;2.27;;
679;SDS011;322;48.846;9.230;2024-03-02T11:43:27;8.50;;;2.17;;
679;SDS011;322;48.846;9.230;2024-03-02T11:45:56;7.90;;;2.23;;
679;SDS011;322;48.846;9.230;2024-03-02T11:48:25;7.50;;;2.00;;
679;SDS011;322;48.846;9.230;2024-03-02T11:50:54;7.40;;;1.80;;
679;SDS011;322;48.846;9.230;2024-03-02T11:53:26;8.23;;;2.27;;
679;SDS011;322;48.846;9.230;2024-03-02T11:56:01;7.20;;;2.00;;
679;SDS011;322;48.846;9.230;2024-03-02T11:58:29;8.63;;;2.20;;
679;SDS011;322;48.846;9.230;2024-03-02T12:00:57;7.20;;;1.80;;
679;SDS011;322;48.846;9.230;2024-03-02T12:03:25;8.30;;;2.33;;
679;SDS011;322;48.846;9.230;2024-03-02T12:05:54;7.90;;;2.37;;
679;SDS011;322;48.846;9.230;2024-03-02T12:08:22;7.67;;;1.97;;
679;SDS011;322;48.846;9.230;2024-03-02T12:10:58;8.37;;;1.90;;
679;SDS011;322;48.846;9.230;2024-03-02T12:13:27;7.20;;;2.00;;
679;SDS011;322;48.846;9.230;2024-03-02T12:15:55;8.07;;;2.30;;
679;SDS011;322;48.846;9.230;2024-03-02T12:18:23;8.33;;;1.73;;
679;SDS011;322;48.846;9.230;2024-03-02T12:20:52;7.83;;;1.33;;
679;SDS011;322;48.846;9.230;2024-03-02T12:23:24;7.57;;;1.67;;
679;SDS011;322;48.846;9.230;2024-03-02T12:25:52;7.30;;;1.50;;
679;SDS011;322;48.846;9.230;2024-03-02T12:28:22;8.80;;;1.47;;
679;SDS011;322;48.846;9.230;2024-03-02T12:30:50;6.60;;;1.37;;
679;SDS011;322;48.846;9.230;2024-03-02T12:33:18;7.10;;;1.30;;
679;SDS011;322;48.846;9.230;2024-03-02T12:35:48;6.67;;;1.20;;
679;SDS011;322;48.846;9.230;2024-03-02T12:38:17;6.97;;;1.33;;
679;SDS011;322;48.846;9.230;2024-03-02T12:40:47;6.80;;;1.43;;
679;SDS011;322;48.846;9.230;2024-03-02T12:43:15;7.00;;;1.50;;
679;SDS011;322;48.846;9.230;2024-03-02T12:45:44;7.10;;;1.27;;
679;SDS011;322;48.846;9.230;2024-03-02T12:48:13;6.67;;;1.17;;
679;SDS011;322;48.846;9.230;2024-03-02T12:50:42;6.80;;;1.30;;
679;SDS011;322;48.846;9.230;2024-03-02T12:53:13;6.60;;;1.20;;
679;SDS011;322;48.846;9.230;2024-03-02T12:55:43;6.73;;;1.20;;
679;SDS011;322;48.846;9.230;2024-03-02T12:58:16;6.50;;;1.10;;
679;SDS011;322;48.846;9.230;2024-03-02T13:00:46;6.93;;;1.40;;
679;SDS011;322;48.846;9.230;2024-03-02T13:03:14;6.50;;;1.20;;
679;SDS011;322;48.846;9.230;2024-03-02T13:05:48;6.37;;;0.73;;
679;SDS011;322;48.846;9.230;2024-03-02T13:08:16;6.27;;;0.70;;
679;SDS011;322;48.846;9.230;2024-03-02T13:10:44;6.50;;;0.80;;
679;SDS011;322;48.846;9.230;2024-03-02T13:13:13;6.67;;;0.70;;
679;SDS011;322;48.846;9.230;2024-03-02T13:15:41;6.80;;;1.20;;
679;SDS011;322;48.846;9.230;2024-03-02T13:18:11;7.03;;;0.90;;
679;SDS011;322;48.846;9.230;2024-03-02T13:20:40;6.70;;;1.10;;
679;SDS011;322;48.846;9.230;2024-03-02T13:23:08;6.60;;;0.70;;
679;SDS011;322;48.846;9.230;2024-03-02T13:25:36;6.17;;;0.80;;
679;SDS011;322;48.846;9.230;2024-03-02T13:28:04;5.87;;;0.63;;
679;SDS011;322;48.846;9.230;2024-03-02T13:30:33;6.30;;;0.87;;
679;SDS011;322;48.846;9.230;2024-03-02T13:33:01;5.97;;;0.90;;
679;SDS011;322;48.846;9.230;2024-03-02T13:35:31;6.80;;;0.90;;
679;SDS011;322;48.846;9.230;2024-03-02T13:37:59;6.80;;;1.00;;
679;SDS011;322;48.846;9.230;2024-03-02T13:40:27;5.90;;;0.60;;
679;SDS011;322;48.846;9.230;2024-03-02T13:42:56;6.20;;;0.90;;
679;SDS011;322;48.846;9.230;2024-03-02T13:45:24;7.30;;;0.70;;
679;SDS011;322;48.846;9.230;2024-03-02T13:47:52;6.20;;;0.80;;
679;SDS011;322;48.846;9.230;2024-03-02T13:50:20;6.50;;;1.10;;
679;SDS011;322;48.846;9.230;2024-03-02T13:52:50;6.27;;;0.83;;
679;SDS011;322;48.846;9.230;2024-03-02T13:55:17;7.33;;;1.20;;
679;SDS011;322;48.846;9.230;2024-03-02T13:57:46;6.70;;;1.00;;
679;SDS011;322;48.846;9.230;2024-03-02T14:00:16;6.07;;;0.80;;
679;SDS011;322;48.846;9.230;2024-03-02T14:02:45;6.00;;;0.80;;
679;SDS011;322;48.846;9.230;2024-03-02T14:05:15;6.30;;;0.77;;
679;SDS011;322;48.846;9.230;2024-03-02T14:07:43;6.30;;;0.90;;
679;SDS011;322;48.846;9.230;2024-03-02T14:10:13;6.07;;;0.77;;
679;SDS011;322;48.846;9.230;2024-03-02T14:12:42;6.30;;;0.90;;
679;SDS011;322;48.846;9.230;2024-03-02T14:15:10;5.90;;;0.77;;
679;SDS011;322;48.846;9.230;2024-03-02T14:17:38;7.67;;;1.23;;
679;SDS011;322;48.846;9.230;2024-03-02T14:20:07;6.90;;;1.47;;
679;SDS011;322;48.846;9.230;2024-03-02T14:22:36;6.53;;;1.33;;
679;SDS011;322;48.846;9.230;2024-03-02T14:25:04;7.73;;;1.30;;
679;SDS011;322;48.846;9.230;2024-03-02T14:27:34;6.60;;;1.30;;
679;SDS011;322;48.846;9.230;2024-03-02T14:30:22;7.33;;;1.87;;
679;SDS011;322;48.846;9.230;2024-03-02T14:32:50;7.43;;;1.60;;
679;SDS011;322;48.846;9.230;2024-03-02T14:35:18;7.77;;;1.60;;
679;SDS011;322;48.846;9.230;2024-03-02T14:37:48;7.17;;;1.40;;
679;SDS011;322;48.846;9.230;2024-03-02T14:40:16;7.00;;;1.33;;
679;SDS011;322;48.846;9.230;2024-03-02T14:42:46;7.57;;;1.13;;
679;SDS011;322;48.846;9.230;2024-03-02T14:45:14;6.70;;;1.50;;
679;SDS011;322;48.846;9.230;2024-03-02T14:47:42;7.03;;;1.20;;
679;SDS011;322;48.846;9.230;2024-03-02T14:50:11;6.40;;;1.73;;
679;SDS011;322;48.846;9.230;2024-03-02T14:52:39;6.60;;;1.00;;
679;SDS011;322;48.846;9.230;2024-03-02T14:55:11;7.33;;;0.93;;
679;SDS011;322;48.846;9.230;2024-03-02T14:57:39;6.90;;;1.40;;
679;SDS011;322;48.846;9.230;2024-03-02T15:00:09;6.40;;;1.00;;
679;SDS011;322;48.846;9.230;2024-03-02T15:02:38;6.53;;;1.00;;
679;SDS011;322;48.846;9.230;2024-03-02T15:05:07;6.40;;;0.80;;
679;SDS011;322;48.846;9.230;2024-03-02T15:07:35;6.37;;;1.10;;
679;SDS011;322;48.846;9.230;2024-03-02T15:10:05;6.10;;;0.90;;
679;SDS011;322;48.846;9.230;2024-03-02T15:12:34;6.47;;;1.03;;
679;SDS011;322;48.846;9.230;2024-03-02T15:15:03;6.70;;;0.80;;
679;SDS011;322;48.846;9.230;2024-03-02T15:17:32;6.83;;;1.27;;
679;SDS011;322;48.846;9.230;2024-03-02T15:20:00;6.43;;;1.00;;
679;SDS011;322;48.846;9.230;2024-03-02T15:22:30;6.20;;;1.03;;
679;SDS011;322;48.846;9.230;2024-03-02T15:24:58;6.50;;;1.00;;
679;SDS011;322;48.846;9.230;2024-03-02T15:27:26;6.57;;;1.20;;
679;SDS011;322;48.846;9.230;2024-03-02T15:29:55;6.60;;;1.07;;
679;SDS011;322;48.846;9.230;2024-03-02T15:32:24;7.80;;;1.20;;
679;SDS011;322;48.846;9.230;2024-03-02T15:34:54;7.63;;;1.17;;
679;SDS011;322;48.846;9.230;2024-03-02T15:37:22;6.77;;;1.00;;
679;SDS011;322;48.846;9.230;2024-03-02T15:39:50;8.07;;;1.13;;
679;SDS011;322;48.846;9.230;2024-03-02T15:42:18;7.13;;;1.53;;
679;SDS011;322;48.846;9.230;2024-03-02T15:44:49;6.80;;;1.20;;